Time;durP1;ratioP1;P1;durP2;ratioP2;P2;SDS_P1;SDS_P2;PMS_P1;PMS_P2;Temp;Humidity;BMP_temperature;BMP_pressure;BME280_temperature;BME280_humidity;BME280_pressure;Samples;Min_cycle;Max_cycle;Signal;HPM_P1;HPM_P2
2022/03/16 00:02:23;;;;;;;228.38;73.75;;;;;;;;;;5064208;28;20405;-86
2022/03/16 00:04:56;;;;;;;233.60;71.70;;;;;;;;;;5068523;28;20040;-87
2022/03/16 00:07:23;;;;;;;260.92;78.55;;;;;;;;;;5065681;28;20060;-86
2022/03/16 00:09:50;;;;;;;250.70;77.93;;;;;;;;;;5082780;28;20088;-87
2022/03/16 00:12:17;;;;;;;297.13;81.53;;;;;;;;;;5067107;28;20056;-87
2022/03/16 00:14:43;;;;;;;175.95;57.75;;;;;;;;;;5066336;28;20116;-87
2022/03/16 00:17:10;;;;;;;238.97;76.87;;;;;;;;;;5068331;28;20044;-87
2022/03/16 00:19:44;;;;;;;280.85;77.80;;;;;;;;;;5067194;28;20290;-86
2022/03/16 00:22:11;;;;;;;393.08;78.55;;;;;;;;;;5068137;28;20101;-86
2022/03/16 00:24:37;;;;;;;430.27;80.07;;;;;;;;;;5066740;28;20048;-85
2022/03/16 00:27:06;;;;;;;279.48;73.15;;;;;;;;;;5071163;28;20040;-86
2022/03/16 00:29:32;;;;;;;286.10;75.65;;;;;;;;;;5068484;28;20060;-86
2022/03/16 00:32:02;;;;;;;202.55;69.97;;;;;;;;;;5067561;28;20044;-86
2022/03/16 00:34:32;;;;;;;244.70;72.07;;;;;;;;;;5068046;28;20075;-86
2022/03/16 00:36:59;;;;;;;;;;;;;;;;;;5068479;28;20051;-87
2022/03/16 00:39:26;;;;;;;219.23;67.38;;;;;;;;;;5072921;28;19973;-86
2022/03/16 00:41:59;;;;;;;239.00;69.32;;;;;;;;;;5069515;28;20133;-86
2022/03/16 00:44:27;;;;;;;245.82;71.78;;;;;;;;;;5070373;28;20044;-87
2022/03/16 00:46:54;;;;;;;277.13;72.72;;;;;;;;;;5069742;28;20048;-86
2022/03/16 00:49:22;;;;;;;274.67;76.45;;;;;;;;;;5068805;28;20060;-85
2022/03/16 00:51:49;;;;;;;329.55;77.82;;;;;;;;;;5067444;28;20056;-86
2022/03/16 00:54:15;;;;;;;311.42;77.82;;;;;;;;;;5069771;28;20505;-86
2022/03/16 00:56:46;;;;;;;313.85;80.13;;;;;;;;;;5067551;28;20064;-86
2022/03/16 00:59:12;;;;;;;304.80;76.30;;;;;;;;;;5064511;28;20514;-87
2022/03/16 01:01:39;;;;;;;348.00;77.07;;;;;;;;;;5069924;28;20375;-87
2022/03/16 01:04:05;;;;;;;285.88;60.08;;;;;;;;;;5078500;28;20056;-87
2022/03/16 01:06:32;;;;;;;318.92;76.78;;;;;;;;;;5064476;28;20052;-87
2022/03/16 01:08:59;;;;;;;343.23;74.97;;;;;;;;;;5069716;28;20055;-86
2022/03/16 01:11:25;;;;;;;410.50;79.20;;;;;;;;;;5069797;28;20052;-86
2022/03/16 01:13:52;;;;;;;360.83;78.63;;;;;;;;;;5070208;28;20044;-86
2022/03/16 01:16:19;;;;;;;434.30;77.93;;;;;;;;;;5071332;28;20055;-86
2022/03/16 01:18:51;;;;;;;561.40;82.60;;;;;;;;;;5070596;28;20048;-86
2022/03/16 01:21:19;;;;;;;383.75;79.50;;;;;;;;;;5065003;28;20048;-85
2022/03/16 01:23:45;;;;;;;494.73;80.82;;;;;;;;;;5064689;28;20078;-86
2022/03/16 01:26:16;;;;;;;574.47;81.60;;;;;;;;;;5068605;28;20048;-85
2022/03/16 01:28:42;;;;;;;331.88;74.95;;;;;;;;;;5066324;28;20110;-86
2022/03/16 01:31:09;;;;;;;586.63;81.68;;;;;;;;;;5070887;28;20056;-86
2022/03/16 01:33:37;;;;;;;748.33;86.63;;;;;;;;;;5069388;28;20068;-87
2022/03/16 01:36:03;;;;;;;509.05;81.22;;;;;;;;;;5090895;28;20458;-86
2022/03/16 01:38:30;;;;;;;654.97;82.43;;;;;;;;;;5075362;28;20491;-87
2022/03/16 01:41:02;;;;;;;641.38;79.97;;;;;;;;;;5074166;28;20094;-87
2022/03/16 01:43:29;;;;;;;673.72;85.60;;;;;;;;;;5084218;28;20054;-85
2022/03/16 01:45:56;;;;;;;425.30;79.00;;;;;;;;;;5070935;28;20045;-86
2022/03/16 01:48:22;;;;;;;365.83;76.50;;;;;;;;;;5073997;28;20421;-87
2022/03/16 01:50:49;;;;;;;632.00;81.73;;;;;;;;;;5069311;28;20052;-86
2022/03/16 01:53:16;;;;;;;529.50;78.57;;;;;;;;;;5071232;28;20503;-86
2022/03/16 01:55:49;;;;;;;578.88;79.68;;;;;;;;;;5068243;28;20079;-86
2022/03/16 01:58:17;;;;;;;504.58;77.35;;;;;;;;;;5074689;28;20052;-86
2022/03/16 02:00:43;;;;;;;563.55;76.78;;;;;;;;;;5072691;28;20068;-86
2022/03/16 02:03:11;;;;;;;431.70;75.38;;;;;;;;;;5074459;28;20064;-86
2022/03/16 02:05:38;;;;;;;416.15;60.17;;;;;;;;;;5073883;28;20067;-86
2022/03/16 02:08:05;;;;;;;455.20;76.50;;;;;;;;;;5086818;28;20105;-86
2022/03/16 02:10:32;;;;;;;568.20;77.88;;;;;;;;;;5074057;28;20045;-86
2022/03/16 02:12:59;;;;;;;363.83;72.15;;;;;;;;;;5070599;28;20044;-86
2022/03/16 02:15:25;;;;;;;432.67;73.47;;;;;;;;;;5072551;28;20040;-87
2022/03/16 02:17:55;;;;;;;584.20;78.50;;;;;;;;;;5068694;28;20047;-86
2022/03/16 02:20:22;;;;;;;406.60;75.05;;;;;;;;;;5066613;28;20052;-86
2022/03/16 02:22:50;;;;;;;462.42;74.45;;;;;;;;;;5066768;28;20649;-87
2022/03/16 02:25:20;;;;;;;767.42;81.35;;;;;;;;;;5074032;28;20056;-87
2022/03/16 02:27:46;;;;;;;598.67;75.40;;;;;;;;;;5071144;28;20104;-85
2022/03/16 02:30:13;;;;;;;770.80;84.80;;;;;;;;;;5067165;28;20492;-87
2022/03/16 02:32:46;;;;;;;524.20;74.18;;;;;;;;;;5072950;28;20056;-86
2022/03/16 02:35:12;;;;;;;945.50;86.93;;;;;;;;;;5071162;28;20048;-86
2022/03/16 02:37:39;;;;;;;1025.45;90.30;;;;;;;;;;5087424;28;20044;-86
2022/03/16 02:40:07;;;;;;;622.42;77.20;;;;;;;;;;5088068;28;20079;-85
2022/03/16 02:42:34;;;;;;;389.35;73.28;;;;;;;;;;5085391;28;20041;-87
2022/03/16 02:45:00;;;;;;;427.17;73.47;;;;;;;;;;5073327;28;20131;-85
2022/03/16 02:47:29;;;;;;;882.42;85.20;;;;;;;;;;5072173;28;20049;-85
2022/03/16 02:49:55;;;;;;;446.40;70.38;;;;;;;;;;5083712;28;20069;-86
2022/03/16 02:52:22;;;;;;;523.88;71.22;;;;;;;;;;5082280;28;20077;-86
2022/03/16 02:54:56;;;;;;;624.35;73.22;;;;;;;;;;5074086;28;20084;-86
2022/03/16 02:57:22;;;;;;;635.45;75.72;;;;;;;;;;5084084;28;20040;-86
2022/03/16 02:59:49;;;;;;;530.67;71.10;;;;;;;;;;5073006;28;20220;-85
2022/03/16 03:02:16;;;;;;;797.60;77.97;;;;;;;;;;5085854;28;20043;-85
2022/03/16 03:04:42;;;;;;;546.97;59.28;;;;;;;;;;5069786;28;20075;-86
2022/03/16 03:07:10;;;;;;;705.10;75.72;;;;;;;;;;5073533;28;20111;-85
2022/03/16 03:09:39;;;;;;;418.63;69.47;;;;;;;;;;5073024;28;20126;-85
2022/03/16 03:12:05;;;;;;;409.52;68.88;;;;;;;;;;5069049;28;20072;-85
2022/03/16 03:14:32;;;;;;;452.38;73.40;;;;;;;;;;5068131;28;20068;-85
2022/03/16 03:17:00;;;;;;;1115.18;92.53;;;;;;;;;;5072300;28;20088;-84
2022/03/16 03:19:27;;;;;;;470.75;71.65;;;;;;;;;;5066627;28;20135;-85
2022/03/16 03:21:53;;;;;;;367.50;68.05;;;;;;;;;;5080647;28;20093;-84
2022/03/16 03:24:22;;;;;;;808.45;76.50;;;;;;;;;;5071041;28;20093;-85
2022/03/16 03:26:49;;;;;;;481.92;70.60;;;;;;;;;;5071850;28;20492;-84
2022/03/16 03:29:16;;;;;;;630.28;73.78;;;;;;;;;;5081172;28;20044;-87
2022/03/16 03:31:48;;;;;;;505.02;71.40;;;;;;;;;;5080351;28;20068;-87
2022/03/16 03:34:15;;;;;;;615.50;73.65;;;;;;;;;;5066114;28;20083;-87
2022/03/16 03:36:42;;;;;;;399.85;67.95;;;;;;;;;;5083517;28;20048;-86
2022/03/16 03:39:18;;;;;;;296.95;62.88;;;;;;;;;;5069265;28;20515;-87
2022/03/16 03:41:44;;;;;;;266.38;61.38;;;;;;;;;;5071579;28;20044;-86
2022/03/16 03:44:10;;;;;;;338.70;65.15;;;;;;;;;;5071389;28;20059;-86
2022/03/16 03:46:37;;;;;;;294.65;65.28;;;;;;;;;;5070783;28;20090;-87
2022/03/16 03:49:04;;;;;;;294.08;63.42;;;;;;;;;;5070122;28;20137;-87
2022/03/16 03:51:30;;;;;;;397.10;66.53;;;;;;;;;;5064857;28;20060;-87
2022/03/16 03:53:57;;;;;;;360.50;65.47;;;;;;;;;;5068638;28;20052;-86
2022/03/16 03:56:24;;;;;;;331.97;67.13;;;;;;;;;;5071751;28;20055;-86
2022/03/16 03:58:50;;;;;;;353.47;66.53;;;;;;;;;;5070969;28;20097;-87
2022/03/16 04:01:17;;;;;;;342.40;63.80;;;;;;;;;;5066991;28;20041;-85
2022/03/16 04:03:44;;;;;;;346.73;67.10;;;;;;;;;;5071082;28;20056;-87
2022/03/16 04:06:11;;;;;;;365.83;68.78;;;;;;;;;;5067278;28;20109;-86
2022/03/16 04:08:45;;;;;;;367.15;68.63;;;;;;;;;;5071468;28;20470;-87
2022/03/16 04:11:12;;;;;;;386.38;70.30;;;;;;;;;;5068152;28;20055;-86
2022/03/16 04:13:38;;;;;;;308.17;64.85;;;;;;;;;;5072880;28;20496;-86
2022/03/16 04:16:05;;;;;;;632.08;71.65;;;;;;;;;;5074839;28;20059;-84
2022/03/16 04:18:32;;;;;;;455.27;71.47;;;;;;;;;;5063634;28;20056;-86
2022/03/16 04:20:58;;;;;;;750.90;79.47;;;;;;;;;;5073887;28;20082;-86
2022/03/16 04:23:25;;;;;;;297.03;50.53;;;;;;;;;;5070528;28;20114;-87
2022/03/16 04:25:52;;;;;;;557.95;69.50;;;;;;;;;;5079818;28;20117;-86
2022/03/16 04:28:18;;;;;;;755.80;79.15;;;;;;;;;;5081080;28;20839;-87
2022/03/16 04:30:47;;;;;;;657.53;75.05;;;;;;;;;;5070213;28;20044;-86
2022/03/16 04:33:14;;;;;;;854.05;75.97;;;;;;;;;;5071408;28;20048;-86
2022/03/16 04:35:40;;;;;;;935.05;82.80;;;;;;;;;;5072589;28;20052;-86
2022/03/16 04:38:14;;;;;;;831.25;81.55;;;;;;;;;;5070585;28;20040;-86
2022/03/16 04:40:40;;;;;;;1031.40;88.53;;;;;;;;;;5068378;28;20094;-86
2022/03/16 04:43:07;;;;;;;796.75;85.65;;;;;;;;;;5066259;28;20067;-86
2022/03/16 04:45:40;;;;;;;1016.97;89.07;;;;;;;;;;5066357;28;20052;-86
2022/03/16 04:48:08;;;;;;;721.85;78.88;;;;;;;;;;5072009;28;20052;-85
2022/03/16 04:50:36;;;;;;;1234.13;94.47;;;;;;;;;;5070057;28;20466;-87
2022/03/16 04:53:10;;;;;;;740.03;79.90;;;;;;;;;;5069721;28;20052;-86
2022/03/16 04:55:43;;;;;;;991.75;82.95;;;;;;;;;;5060848;28;20460;-86
2022/03/16 04:58:17;;;;;;;1202.97;89.85;;;;;;;;;;5068322;28;20048;-86
2022/03/16 05:00:43;;;;;;;552.83;67.78;;;;;;;;;;5065930;28;20079;-86
2022/03/16 05:15:49;;;;;;;1307.28;109.38;;;;;;;;;;4764368;27;8287226;-71
2022/03/16 05:18:15;;;;;;;1280.22;103.32;;;;;;;;;;5030907;28;20571;-71
2022/03/16 05:20:42;;;;;;;948.83;86.55;;;;;;;;;;5034913;28;20052;-71
2022/03/16 05:23:08;;;;;;;627.45;75.35;;;;;;;;;;5035495;28;20053;-71
2022/03/16 05:25:42;;;;;;;485.42;71.38;;;;;;;;;;5032904;28;20087;-71
2022/03/16 05:28:08;;;;;;;1214.47;91.72;;;;;;;;;;5037178;28;20463;-72
2022/03/16 05:30:34;;;;;;;1328.38;95.28;;;;;;;;;;5036173;28;20477;-72
2022/03/16 05:33:08;;;;;;;433.25;70.82;;;;;;;;;;5031916;28;20087;-72
2022/03/16 05:35:34;;;;;;;356.90;66.38;;;;;;;;;;5034611;28;20077;-72
2022/03/16 05:38:02;;;;;;;657.03;78.53;;;;;;;;;;5032964;28;20136;-71
2022/03/16 05:40:29;;;;;;;1263.55;92.18;;;;;;;;;;5034951;28;20128;-72
2022/03/16 05:42:55;;;;;;;830.72;80.68;;;;;;;;;;5036248;28;20121;-71
2022/03/16 05:45:22;;;;;;;1007.15;92.13;;;;;;;;;;5034244;28;20087;-72
2022/03/16 05:47:51;;;;;;;1377.68;96.72;;;;;;;;;;5033086;28;20615;-71
2022/03/16 05:50:18;;;;;;;896.95;81.28;;;;;;;;;;5034748;28;20061;-72
2022/03/16 05:52:46;;;;;;;1306.15;93.47;;;;;;;;;;5033823;28;20076;-71
2022/03/16 05:55:13;;;;;;;743.30;77.40;;;;;;;;;;5030748;28;20048;-72
2022/03/16 05:57:40;;;;;;;599.83;74.30;;;;;;;;;;5034850;28;20064;-71
2022/03/16 06:00:14;;;;;;;662.30;75.32;;;;;;;;;;5037983;28;20104;-71
2022/03/16 06:02:48;;;;;;;914.25;83.45;;;;;;;;;;5033407;28;20084;-71
2022/03/16 06:05:15;;;;;;;794.75;81.15;;;;;;;;;;5030907;28;20088;-70
2022/03/16 06:07:42;;;;;;;803.92;80.30;;;;;;;;;;5014923;28;20157;-70
2022/03/16 06:10:17;;;;;;;706.17;78.65;;;;;;;;;;5015480;28;20145;-72
2022/03/16 06:12:43;;;;;;;;;;;;;;;;;;5015898;28;20077;-71
2022/03/16 06:15:10;;;;;;;948.83;80.45;;;;;;;;;;5010911;28;19968;-70
2022/03/16 06:17:37;;;;;;;584.97;70.38;;;;;;;;;;5002813;28;20145;-70
2022/03/16 06:20:03;;;;;;;621.43;73.93;;;;;;;;;;5001393;28;20116;-70
2022/03/16 06:22:30;;;;;;;928.42;82.18;;;;;;;;;;4999937;28;20069;-71
2022/03/16 06:24:57;;;;;;;401.30;65.55;;;;;;;;;;5002182;28;20128;-71
2022/03/16 06:27:23;;;;;;;435.88;64.32;;;;;;;;;;5001811;28;20164;-71
2022/03/16 06:29:49;;;;;;;470.33;69.00;;;;;;;;;;5001979;28;20153;-70
2022/03/16 06:32:17;;;;;;;682.67;72.68;;;;;;;;;;5000072;28;20061;-70
2022/03/16 06:34:45;;;;;;;542.67;65.97;;;;;;;;;;5004327;28;20045;-71
2022/03/16 06:37:12;;;;;;;328.30;57.33;;;;;;;;;;5005570;28;20473;-71
2022/03/16 06:39:46;;;;;;;566.72;62.67;;;;;;;;;;5000268;28;20137;-71
2022/03/16 06:42:12;;;;;;;368.17;56.75;;;;;;;;;;5001499;28;20137;-71
2022/03/16 06:44:45;;;;;;;480.50;59.55;;;;;;;;;;4999585;28;20133;-71
2022/03/16 06:47:15;;;;;;;357.48;57.88;;;;;;;;;;5000278;28;20145;-71
2022/03/16 06:49:41;;;;;;;363.90;58.05;;;;;;;;;;5005977;28;20723;-72
2022/03/16 06:52:08;;;;;;;227.52;51.17;;;;;;;;;;5000001;28;20074;-71
2022/03/16 06:54:41;;;;;;;368.75;55.42;;;;;;;;;;5002522;28;20625;-73
2022/03/16 06:57:07;;;;;;;248.15;50.67;;;;;;;;;;5000759;28;20129;-71
2022/03/16 06:59:53;;;;;;;218.07;47.28;;;;;;;;;;5001021;28;20045;-71
2022/03/16 07:02:24;;;;;;;147.00;44.13;;;;;;;;;;4998872;28;20046;-71
2022/03/16 07:04:51;;;;;;;190.82;45.10;;;;;;;;;;5000286;28;20057;-71
2022/03/16 07:07:17;;;;;;;223.23;47.83;;;;;;;;;;4997204;28;20089;-71
2022/03/16 07:09:46;;;;;;;234.65;49.33;;;;;;;;;;4998618;28;20050;-71
2022/03/16 07:12:12;;;;;;;174.63;46.13;;;;;;;;;;4999135;28;20082;-71
2022/03/16 07:14:38;;;;;;;344.77;52.42;;;;;;;;;;5000457;28;20050;-71
2022/03/16 07:17:12;;;;;;;316.75;51.47;;;;;;;;;;4997902;28;20149;-71
2022/03/16 07:19:38;;;;;;;190.90;48.15;;;;;;;;;;4993811;28;20720;-71
2022/03/16 07:22:05;;;;;;;247.05;54.10;;;;;;;;;;4993498;28;20501;-71
2022/03/16 07:24:32;;;;;;;301.50;53.22;;;;;;;;;;4994486;28;20606;-71
2022/03/16 07:27:02;;;;;;;185.32;49.22;;;;;;;;;;4992461;28;20057;-71
2022/03/16 07:29:29;;;;;;;278.65;53.78;;;;;;;;;;4994156;28;20053;-71
2022/03/16 07:31:56;;;;;;;231.30;50.92;;;;;;;;;;4993569;28;20081;-71
2022/03/16 07:34:23;;;;;;;186.52;48.00;;;;;;;;;;4992797;28;20054;-71
2022/03/16 07:36:50;;;;;;;150.10;44.70;;;;;;;;;;4994408;28;20135;-70
2022/03/16 07:39:18;;;;;;;146.82;44.47;;;;;;;;;;4993126;28;20049;-70
2022/03/16 07:41:44;;;;;;;168.63;44.60;;;;;;;;;;4993607;28;20053;-71
2022/03/16 07:44:11;;;;;;;203.13;44.45;;;;;;;;;;4993319;28;20145;-70
2022/03/16 07:46:43;;;;;;;200.25;46.13;;;;;;;;;;4994227;28;20458;-70
2022/03/16 07:49:10;;;;;;;239.25;46.67;;;;;;;;;;4994384;28;20528;-71
2022/03/16 07:51:36;;;;;;;157.43;43.33;;;;;;;;;;4994545;28;20132;-70
2022/03/16 07:54:04;;;;;;;209.52;44.70;;;;;;;;;;4996436;28;20129;-71
2022/03/16 07:56:30;;;;;;;146.63;41.03;;;;;;;;;;4993948;28;20136;-71
2022/03/16 07:59:01;;;;;;;144.75;41.38;;;;;;;;;;4993411;28;20524;-71
2022/03/16 08:01:28;;;;;;;184.00;42.65;;;;;;;;;;5002058;28;20086;-70
2022/03/16 08:03:55;;;;;;;147.82;42.63;;;;;;;;;;4998308;28;20046;-71
2022/03/16 08:06:27;;;;;;;165.93;43.50;;;;;;;;;;4998839;28;20053;-70
2022/03/16 08:08:54;;;;;;;140.68;41.05;;;;;;;;;;4994039;28;20044;-71
2022/03/16 08:11:22;;;;;;;123.20;39.53;;;;;;;;;;4993943;28;20148;-70
2022/03/16 08:13:48;;;;;;;138.52;38.55;;;;;;;;;;4987471;28;20104;-70
2022/03/16 08:16:15;;;;;;;100.45;36.83;;;;;;;;;;5001225;28;20086;-71
2022/03/16 08:18:42;;;;;;;93.57;35.07;;;;;;;;;;4975565;28;20048;-71
2022/03/16 08:21:08;;;;;;;87.07;33.13;;;;;;;;;;4994251;28;20141;-71
2022/03/16 08:23:35;;;;;;;80.50;33.47;;;;;;;;;;4993571;28;20074;-71
2022/03/16 08:26:02;;;;;;;98.10;35.63;;;;;;;;;;4993402;28;20056;-71
2022/03/16 08:28:28;;;;;;;92.72;35.47;;;;;;;;;;4993751;28;20052;-70
2022/03/16 08:30:55;;;;;;;90.05;35.08;;;;;;;;;;4997053;28;20133;-70
2022/03/16 08:33:23;;;;;;;90.43;34.17;;;;;;;;;;4996884;28;20133;-70
2022/03/16 08:35:50;;;;;;;73.65;32.13;;;;;;;;;;4992889;28;20065;-70
2022/03/16 08:38:17;;;;;;;68.88;26.27;;;;;;;;;;4992076;28;20130;-71
2022/03/16 08:40:44;;;;;;;51.60;24.70;;;;;;;;;;4993533;28;20535;-71
2022/03/16 08:43:10;;;;;;;56.28;25.98;;;;;;;;;;4993666;28;20470;-71
2022/03/16 08:45:40;;;;;;;55.72;24.63;;;;;;;;;;4997143;28;20083;-70
2022/03/16 08:48:07;;;;;;;57.73;28.80;;;;;;;;;;4999215;28;20169;-71
2022/03/16 08:50:33;;;;;;;63.63;26.17;;;;;;;;;;4992957;28;20311;-70
2022/03/16 08:53:00;;;;;;;53.83;25.80;;;;;;;;;;4992598;28;20129;-71
2022/03/16 08:55:26;;;;;;;57.35;25.75;;;;;;;;;;4993932;28;20264;-70
2022/03/16 08:57:52;;;;;;;52.40;24.77;;;;;;;;;;4992429;28;20104;-70
2022/03/16 09:00:22;;;;;;;55.58;27.63;;;;;;;;;;4992930;28;20553;-70
2022/03/16 09:02:48;;;;;;;54.50;26.90;;;;;;;;;;4993169;28;20050;-70
2022/03/16 09:05:17;;;;;;;53.83;25.25;;;;;;;;;;4993838;28;20089;-70
2022/03/16 09:07:44;;;;;;;45.92;23.50;;;;;;;;;;4992529;28;20100;-71
2022/03/16 09:10:11;;;;;;;45.95;23.83;;;;;;;;;;4999092;28;20498;-71
2022/03/16 09:12:38;;;;;;;49.63;24.60;;;;;;;;;;4998542;28;20042;-71
2022/03/16 09:15:11;;;;;;;41.83;23.48;;;;;;;;;;4981255;28;20644;-71
2022/03/16 09:17:38;;;;;;;41.33;22.42;;;;;;;;;;4955677;28;20110;-71
2022/03/16 09:20:04;;;;;;;40.95;21.77;;;;;;;;;;4955214;28;20141;-71
2022/03/16 09:22:32;;;;;;;33.33;17.97;;;;;;;;;;4954655;28;20141;-71
2022/03/16 09:24:59;;;;;;;;;;;;;;;;;;4955995;28;20401;-69
2022/03/16 09:27:26;;;;;;;40.08;21.63;;;;;;;;;;4955215;28;20228;-69
2022/03/16 09:29:53;;;;;;;39.28;21.30;;;;;;;;;;4954728;28;20058;-69
2022/03/16 09:32:21;;;;;;;42.13;24.92;;;;;;;;;;4952096;28;20056;-68
2022/03/16 09:34:49;;;;;;;46.42;24.63;;;;;;;;;;4950701;28;20067;-68
2022/03/16 09:37:16;;;;;;;42.38;25.10;;;;;;;;;;4956228;28;20067;-68
2022/03/16 09:39:43;;;;;;;;;;;;;;;;;;4953158;28;20578;-68
2022/03/16 09:42:09;;;;;;;49.17;26.02;;;;;;;;;;4953201;28;19969;-69
2022/03/16 09:44:36;;;;;;;46.33;26.02;;;;;;;;;;4953212;28;20074;-68
2022/03/16 09:47:08;;;;;;;48.90;26.17;;;;;;;;;;4957160;28;20090;-68
2022/03/16 09:49:36;;;;;;;45.28;25.25;;;;;;;;;;4960952;28;20455;-68
2022/03/16 09:52:04;;;;;;;44.97;27.40;;;;;;;;;;4961385;28;20079;-68
2022/03/16 09:54:38;;;;;;;45.80;26.08;;;;;;;;;;4956511;28;20074;-69
2022/03/16 09:57:05;;;;;;;42.78;26.33;;;;;;;;;;4955028;28;20562;-68
2022/03/16 09:59:31;;;;;;;41.80;24.60;;;;;;;;;;4956305;28;21878;-69
2022/03/16 10:01:58;;;;;;;41.53;25.77;;;;;;;;;;4956834;28;20130;-69
2022/03/16 10:04:29;;;;;;;44.45;25.52;;;;;;;;;;4955230;28;20088;-68
2022/03/16 10:06:58;;;;;;;45.25;28.00;;;;;;;;;;4963223;28;20058;-68
2022/03/16 10:15:16;;;;;;;43.47;25.67;;;;;;;;;;4966180;28;20082;-68
2022/03/16 10:17:46;;;;;;;40.38;23.27;;;;;;;;;;4981007;28;20141;-68
2022/03/16 10:20:21;;;;;;;45.60;24.33;;;;;;;;;;4988607;28;20523;-68
2022/03/16 10:23:02;;;;;;;40.42;23.70;;;;;;;;;;4987510;28;20126;-69
2022/03/16 10:25:30;;;;;;;43.58;25.98;;;;;;;;;;4984518;28;20054;-69
2022/03/16 10:28:10;;;;;;;36.15;22.60;;;;;;;;;;4982561;28;20094;-68
2022/03/16 10:30:48;;;;;;;39.42;22.98;;;;;;;;;;4982009;28;20133;-68
2022/03/16 10:33:16;;;;;;;37.10;23.75;;;;;;;;;;4982786;28;20134;-68
2022/03/16 10:35:56;;;;;;;41.53;25.20;;;;;;;;;;4983514;28;20082;-68
2022/03/16 10:38:23;;;;;;;40.05;24.42;;;;;;;;;;4981115;28;20081;-68
2022/03/16 10:40:49;;;;;;;37.50;24.73;;;;;;;;;;4980897;28;20083;-69
2022/03/16 10:46:55;;;;;;;44.05;25.00;;;;;;;;;;4984521;28;20137;-68
2022/03/16 10:49:09;;;;;;;37.67;23.58;;;;;;;;;;4978727;28;20043;-68
2022/03/16 10:51:44;;;;;;;38.40;24.48;;;;;;;;;;4983095;28;20082;-68
2022/03/16 10:54:22;;;;;;;39.70;23.83;;;;;;;;;;4986020;28;20046;-68
2022/03/16 10:56:57;;;;;;;39.05;23.92;;;;;;;;;;4982558;28;20502;-68
2022/03/16 10:59:26;;;;;;;40.30;23.30;;;;;;;;;;4982535;28;20082;-68
2022/03/16 11:01:53;;;;;;;37.95;21.73;;;;;;;;;;4984104;28;20046;-68
2022/03/16 11:04:25;;;;;;;42.13;24.73;;;;;;;;;;4980893;28;20141;-68
2022/03/16 11:06:52;;;;;;;39.08;22.75;;;;;;;;;;4982070;28;20085;-68
2022/03/16 11:09:18;;;;;;;39.03;23.05;;;;;;;;;;4981103;28;20494;-67
2022/03/16 11:14:47;;;;;;;34.38;22.42;;;;;;;;;;4980274;28;20526;-68
2022/03/16 11:17:16;;;;;;;38.70;22.90;;;;;;;;;;4979660;28;20137;-68
2022/03/16 11:19:44;;;;;;;36.83;21.35;;;;;;;;;;4982358;28;20387;-67
2022/03/16 11:22:13;;;;;;;32.22;20.45;;;;;;;;;;4982982;28;20115;-68
2022/03/16 11:24:46;;;;;;;34.70;22.00;;;;;;;;;;4975087;28;20045;-68
2022/03/16 11:27:29;;;;;;;34.83;22.67;;;;;;;;;;4976227;28;20137;-68
2022/03/16 11:30:16;;;;;;;38.67;21.55;;;;;;;;;;4975326;28;20125;-68
2022/03/16 11:32:44;;;;;;;32.20;20.80;;;;;;;;;;4974287;28;21634;-68
2022/03/16 11:35:17;;;;;;;38.08;22.17;;;;;;;;;;4974449;28;20129;-68
2022/03/16 11:37:48;;;;;;;33.20;19.13;;;;;;;;;;4975737;28;20060;-68
2022/03/16 11:40:16;;;;;;;33.75;20.80;;;;;;;;;;4976314;28;20065;-67
2022/03/16 11:42:43;;;;;;;;;;;;;;;;;;4974519;28;20426;-68
2022/03/16 11:45:29;;;;;;;33.50;20.52;;;;;;;;;;4975452;28;19921;-68
2022/03/16 11:47:55;;;;;;;35.53;20.73;;;;;;;;;;4975165;28;20129;-68
2022/03/16 11:50:22;;;;;;;36.53;22.30;;;;;;;;;;4975159;28;20054;-67
2022/03/16 11:53:00;;;;;;;33.20;20.50;;;;;;;;;;4973574;28;20061;-68
2022/03/16 11:55:40;;;;;;;28.83;19.88;;;;;;;;;;4974269;28;20123;-68
2022/03/16 11:58:26;;;;;;;34.33;20.05;;;;;;;;;;4973851;28;20078;-67
2022/03/16 12:01:12;;;;;;;34.95;20.92;;;;;;;;;;4973597;28;20082;-68
2022/03/16 12:03:44;;;;;;;33.75;20.10;;;;;;;;;;4974292;28;20055;-68
2022/03/16 12:06:12;;;;;;;35.90;19.42;;;;;;;;;;4974995;28;20137;-68
2022/03/16 12:08:51;;;;;;;31.40;18.05;;;;;;;;;;4975048;28;20125;-68
2022/03/16 12:14:06;;;;;;;31.63;19.88;;;;;;;;;;4973949;28;20482;-67
2022/03/16 12:16:43;;;;;;;36.00;20.83;;;;;;;;;;4972738;28;20213;-68
2022/03/16 12:19:26;;;;;;;35.55;21.75;;;;;;;;;;4974106;28;20054;-68
2022/03/16 12:21:53;;;;;;;32.70;20.20;;;;;;;;;;4974157;28;20176;-68
2022/03/16 12:30:04;;;;;;;35.60;20.92;;;;;;;;;;4974732;28;20082;-67
2022/03/16 12:32:35;;;;;;;32.63;21.67;;;;;;;;;;4974354;28;20137;-67
2022/03/16 12:35:04;;;;;;;33.83;20.67;;;;;;;;;;4974041;28;20079;-68
2022/03/16 12:37:31;;;;;;;38.28;21.75;;;;;;;;;;4983940;28;20133;-67
2022/03/16 12:39:58;;;;;;;34.17;20.98;;;;;;;;;;4977164;28;20471;-67
2022/03/16 12:42:33;;;;;;;33.65;19.95;;;;;;;;;;4974137;28;20137;-68
2022/03/16 12:45:05;;;;;;;35.78;20.70;;;;;;;;;;4974345;28;20425;-67
2022/03/16 12:47:38;;;;;;;35.70;19.98;;;;;;;;;;4979585;28;20469;-68
2022/03/16 12:50:12;;;;;;;37.38;20.52;;;;;;;;;;4972477;28;20058;-67
2022/03/16 12:52:40;;;;;;;32.20;20.33;;;;;;;;;;4975262;28;20585;-68
2022/03/16 12:55:06;;;;;;;;;;;;;;;;;;4974457;28;20109;-67
2022/03/16 12:57:33;;;;;;;36.28;20.95;;;;;;;;;;4973907;28;20011;-67
2022/03/16 13:00:03;;;;;;;33.58;20.63;;;;;;;;;;4973532;28;20129;-67
2022/03/16 13:02:35;;;;;;;36.25;20.98;;;;;;;;;;4973772;28;20058;-67
2022/03/16 13:05:02;;;;;;;33.35;18.70;;;;;;;;;;4975099;28;20046;-67
2022/03/16 13:07:28;;;;;;;36.78;20.30;;;;;;;;;;4973471;28;20141;-67
2022/03/16 13:09:57;;;;;;;37.70;20.35;;;;;;;;;;4973272;28;20130;-67
2022/03/16 13:12:23;;;;;;;;;;;;;;;;;;4973339;28;20141;-67
2022/03/16 13:14:52;;;;;;;30.88;19.63;;;;;;;;;;4974259;28;20025;-67
2022/03/16 13:17:21;;;;;;;35.05;20.50;;;;;;;;;;4973884;28;20488;-68
2022/03/16 13:19:55;;;;;;;32.55;19.08;;;;;;;;;;4972955;28;20132;-67
2022/03/16 13:22:22;;;;;;;33.38;20.10;;;;;;;;;;4973246;28;20055;-67
2022/03/16 13:24:57;;;;;;;35.25;21.52;;;;;;;;;;4953823;28;20046;-67
2022/03/16 13:27:38;;;;;;;33.63;20.35;;;;;;;;;;4977164;28;20054;-67
2022/03/16 13:30:21;;;;;;;31.20;19.98;;;;;;;;;;4978583;28;20638;-68
2022/03/16 13:32:51;;;;;;;34.30;20.70;;;;;;;;;;4976407;28;20065;-67
2022/03/16 13:35:23;;;;;;;34.70;20.25;;;;;;;;;;4976806;28;20146;-67
2022/03/16 13:38:00;;;;;;;32.45;18.38;;;;;;;;;;4979620;28;20586;-67
2022/03/16 13:40:27;;;;;;;33.67;19.88;;;;;;;;;;4976157;28;20573;-68
2022/03/16 13:43:02;;;;;;;33.80;19.30;;;;;;;;;;4975237;28;20125;-67
2022/03/16 13:45:31;;;;;;;31.92;18.67;;;;;;;;;;4978498;28;20050;-67
2022/03/16 13:48:08;;;;;;;32.72;18.50;;;;;;;;;;4975830;28;20082;-67
2022/03/16 13:50:34;;;;;;;28.98;18.20;;;;;;;;;;4976414;28;20136;-68
2022/03/16 13:53:11;;;;;;;29.13;18.00;;;;;;;;;;4980135;28;20423;-67
2022/03/16 13:55:38;;;;;;;30.15;17.58;;;;;;;;;;4981461;28;20050;-67
2022/03/16 13:58:09;;;;;;;30.70;18.25;;;;;;;;;;4978099;28;20082;-68
2022/03/16 14:00:44;;;;;;;31.10;18.45;;;;;;;;;;4976140;28;20061;-67
2022/03/16 14:03:19;;;;;;;30.00;18.27;;;;;;;;;;4967971;28;20046;-67
2022/03/16 14:05:45;;;;;;;29.63;18.10;;;;;;;;;;4980456;28;20522;-67
2022/03/16 14:08:12;;;;;;;30.13;17.77;;;;;;;;;;4976634;28;20050;-68
2022/03/16 14:10:41;;;;;;;30.48;16.55;;;;;;;;;;4976306;28;21227;-67
2022/03/16 14:13:09;;;;;;;31.23;16.90;;;;;;;;;;4976407;28;20058;-68
2022/03/16 14:15:35;;;;;;;28.10;17.40;;;;;;;;;;4976016;28;20165;-67
2022/03/16 14:18:07;;;;;;;27.90;17.25;;;;;;;;;;4977038;28;20125;-67
2022/03/16 14:20:35;;;;;;;31.27;16.33;;;;;;;;;;4976640;28;20497;-68
2022/03/16 14:23:02;;;;;;;28.75;16.88;;;;;;;;;;4977045;28;20181;-67
2022/03/16 14:25:33;;;;;;;26.92;15.85;;;;;;;;;;4975792;28;20134;-67
2022/03/16 14:28:01;;;;;;;30.10;16.00;;;;;;;;;;4976863;28;20146;-68
2022/03/16 14:30:27;;;;;;;;;;;;;;;;;;4975748;28;20138;-68
2022/03/16 14:33:00;;;;;;;25.98;15.05;;;;;;;;;;4976197;28;19929;-68
2022/03/16 14:35:29;;;;;;;25.13;15.57;;;;;;;;;;4977266;28;22180;-67
2022/03/16 14:37:56;;;;;;;25.08;15.32;;;;;;;;;;4974689;28;20154;-68
2022/03/16 14:40:22;;;;;;;29.75;16.25;;;;;;;;;;4975719;28;20423;-68
2022/03/16 14:42:51;;;;;;;27.23;15.55;;;;;;;;;;4976060;28;20138;-67
2022/03/16 14:45:18;;;;;;;27.17;16.15;;;;;;;;;;4972989;28;20073;-68
2022/03/16 14:47:46;;;;;;;26.63;16.10;;;;;;;;;;4974264;28;20153;-67
2022/03/16 14:50:12;;;;;;;28.00;16.05;;;;;;;;;;4977361;28;20099;-68
2022/03/16 14:52:40;;;;;;;29.67;16.13;;;;;;;;;;4978489;28;20141;-68
2022/03/16 14:55:07;;;;;;;23.90;15.00;;;;;;;;;;4977359;28;20054;-67